1867 Tropical Storm NOT_NAMED (1867247N12340)


IBTrACS version v04r00. Visit IBTrACS website for data access.
Please direct all questions to the IBTrACS Q and A forum

Storm track - Intensity - Wind Radii - Intensity Data - Source Data - All data

Summary Information

Storm ID 1867247N12340
Start Sep 3 12Z
Max Intensity 45 kt (Sep 5 12Z)
End Sep 12 12Z
ATCF IDs
Track status Best track data.

Storm track plot

Map of storm track

Intensity plots

Map of storm track

Radial wind information

No radial wind information for this storm


Position and Intensity Table

BASIN ISO_TIME_________ NATURE LAT LON MLC WIND
degrees north degrees east kts
NA 1867-09-03 12:00:00 TS 12.20 -20.20 30
NA 15:00:00 TS 12.35 -21.21 30
NA 18:00:00 TS 12.50 -22.20 30
NA 21:00:00 TS 12.66 -23.16 32
NA 1867-09-04 00:00:00 TS 12.80 -24.10 35
NA 03:00:00 TS 12.90 -25.05 35
NA 06:00:00 TS 13.00 -26.00 35
NA 09:00:00 TS 13.14 -26.95 37
NA 12:00:00 TS 13.30 -27.90 40
NA 15:00:00 TS 13.46 -28.84 40
NA 18:00:00 TS 13.60 -29.80 40
NA 21:00:00 TS 13.70 -30.80 40
NA 1867-09-05 00:00:00 TS 13.80 -31.80 40
NA 03:00:00 TS 13.94 -32.76 40
NA 06:00:00 TS 14.10 -33.70 40
NA 09:00:00 TS 14.26 -34.65 42
NA 12:00:00 TS 14.40 -35.60 45
NA 15:00:00 TS 14.50 -36.54 45
NA 18:00:00 TS 14.60 -37.50 45
NA 21:00:00 TS 14.74 -38.50 45
NA 1867-09-06 00:00:00 TS 14.90 -39.50 45
NA 03:00:00 TS 15.06 -40.46 45
NA 06:00:00 TS 15.20 -41.40 45
NA 09:00:00 TS 15.30 -42.35 45
NA 12:00:00 TS 15.40 -43.30 45
NA 15:00:00 TS 15.54 -44.24 45
NA 18:00:00 TS 15.70 -45.20 45
NA 21:00:00 TS 15.86 -46.20 45
NA 1867-09-07 00:00:00 TS 16.00 -47.20 45
NA 03:00:00 TS 16.10 -48.16 45
NA 06:00:00 TS 16.20 -49.10 45
NA 09:00:00 TS 16.34 -50.05 45
NA 12:00:00 TS 16.50 -51.00 45
NA 15:00:00 TS 16.65 -51.94 45
NA 18:00:00 TS 16.80 -52.90 45
NA 21:00:00 TS 16.95 -53.90 45
NA 1867-09-08 00:00:00 TS 17.10 -54.90 45
NA 03:00:00 TS 17.25 -55.86 45
NA 06:00:00 TS 17.40 -56.80 45
NA 09:00:00 TS 17.55 -57.75 45
NA 12:00:00 NR 17.70 -58.70 45
NA 15:00:00 NR 17.85 -59.65 45
NA 18:00:00 NR 18.00 -60.60 45
NA 21:00:00 NR 18.15 -61.58 42
NA 1867-09-09 00:00:00 NR 18.30 -62.50 40
NA 03:00:00 NR 18.43 -63.28 37
NA 06:00:00 NR 18.60 -64.00 35
NA 09:00:00 NR 18.79 -64.77 32
NA 12:00:00 NR 19.20 -65.50 30
NA 15:00:00 NR 20.01 -66.16 27
NA 18:00:00 NR 21.00 -66.80 25
NA 21:00:00 NR 21.89 -67.54 25
NA 1867-09-10 00:00:00 NR 22.80 -68.20 25
NA 03:00:00 NR 23.75 -68.67 25
NA 06:00:00 NR 24.70 -69.00 25
NA 09:00:00 NR 25.65 -69.32 25
NA 12:00:00 NR 26.50 -69.50 25
NA 15:00:00 NR 27.15 -69.46 25
NA 18:00:00 NR 27.70 -69.30 25
NA 21:00:00 NR 28.26 -69.15 25
NA 1867-09-11 00:00:00 TS 28.80 -69.00 25
NA 03:00:00 TS 29.35 -68.90 27
NA 06:00:00 TS 29.90 -68.80 30
NA 09:00:00 TS 30.47 -68.73 30
NA 12:00:00 TS 31.00 -68.50 30
NA 15:00:00 TS 31.42 -67.92 32
NA 18:00:00 TS 31.80 -67.20 35
NA 21:00:00 TS 32.20 -66.60 35
NA 1867-09-12 00:00:00 TS 32.60 -66.00 35
NA 03:00:00 TS 33.00 -65.35 35
NA 06:00:00 TS 33.40 -64.70 35
NA 09:00:00 TS 33.80 -64.09 32
NA 12:00:00 TS 34.20 -63.50 30

Source Information

Agency Information
USA
TOKYO
CMA
HKO
NEWDELHI
REUNION
BOM
NADI
WELLINGTON
DS824
TD9636
TD9635
NEUMANN
MLC

All available IBTrACS Data

SEASON BASIN SUBBASIN ISO_TIME_________ NATURE LAT LON DIST2LAND LANDFALL IFLAG USA SSHS MLC LAT MLC LON MLC CLASS MLC WIND STORM SPEED STORM DIR
Year degrees north degrees east km km 1 degrees north degrees east kts kts degrees
1867 NA NA 1867-09-03 12:00:00 TS 12.20 -20.20 370 370 _____________O -1 12.20 -20.20 TD 30 20 279
1867 NA NA 15:00:00 TS 12.35 -21.21 478 478 _____________P -1 12.35 -21.21 TD 30 20 279
1867 NA NA 18:00:00 TS 12.50 -22.20 564 564 _____________O -1 12.50 -22.20 TD 30 19 279
1867 NA NA 21:00:00 TS 12.66 -23.16 655 655 _____________P -1 12.66 -23.16 TD 32 19 279
1867 NA NA 1867-09-04 00:00:00 TS 12.80 -24.10 744 744 _____________O -1 12.80 -24.10 TS 35 19 277
1867 NA NA 03:00:00 TS 12.90 -25.05 845 845 _____________P -1 12.90 -25.05 TS 35 19 276
1867 NA NA 06:00:00 TS 13.00 -26.00 937 937 _____________O -1 13.00 -26.00 TS 35 19 277
1867 NA NA 09:00:00 TS 13.14 -26.95 1041 1039 _____________P -1 13.14 -26.95 TS 37 19 279
1867 NA NA 12:00:00 TS 13.30 -27.90 1133 1133 _____________O -1 13.30 -27.90 TS 40 19 280
1867 NA NA 15:00:00 TS 13.46 -28.84 1226 1226 _____________P -1 13.46 -28.84 TS 40 19 279
1867 NA NA 18:00:00 TS 13.60 -29.80 1332 1332 _____________O -1 13.60 -29.80 TS 40 19 277
1867 NA NA 21:00:00 TS 13.70 -30.80 1438 1438 _____________P -1 13.70 -30.80 TS 40 20 276
1867 NA NA 1867-09-05 00:00:00 TS 13.80 -31.80 1544 1544 _____________O -1 13.80 -31.80 TS 40 19 277
1867 NA NA 03:00:00 TS 13.94 -32.76 1651 1650 _____________P -1 13.94 -32.76 TS 40 19 279
1867 NA NA 06:00:00 TS 14.10 -33.70 1746 1746 _____________O -1 14.10 -33.70 TS 40 19 280
1867 NA NA 09:00:00 TS 14.26 -34.65 1852 1852 _____________P -1 14.26 -34.65 TS 42 19 279
1867 NA NA 12:00:00 TS 14.40 -35.60 1948 1948 _____________O -1 14.40 -35.60 TS 45 19 278
1867 NA NA 15:00:00 TS 14.50 -36.54 1983 1911 _____________P -1 14.50 -36.54 TS 45 19 276
1867 NA NA 18:00:00 TS 14.60 -37.50 1902 1831 _____________O -1 14.60 -37.50 TS 45 19 277
1867 NA NA 21:00:00 TS 14.74 -38.50 1823 1763 _____________P -1 14.74 -38.50 TS 45 20 279
1867 NA NA 1867-09-06 00:00:00 TS 14.90 -39.50 1755 1691 _____________O -1 14.90 -39.50 TS 45 19 279
1867 NA NA 03:00:00 TS 15.06 -40.46 1691 1639 _____________P -1 15.06 -40.46 TS 45 19 279
1867 NA NA 06:00:00 TS 15.20 -41.40 1632 1577 _____________O -1 15.20 -41.40 TS 45 18 278
1867 NA NA 09:00:00 TS 15.30 -42.35 1570 1526 _____________P -1 15.30 -42.35 TS 45 18 276
1867 NA NA 12:00:00 TS 15.40 -43.30 1520 1474 _____________O -1 15.40 -43.30 TS 45 18 278
1867 NA NA 15:00:00 TS 15.54 -44.24 1474 1433 _____________P -1 15.54 -44.24 TS 45 19 279
1867 NA NA 18:00:00 TS 15.70 -45.20 1427 1383 _____________O -1 15.70 -45.20 TS 45 19 279
1867 NA NA 21:00:00 TS 15.86 -46.20 1387 1350 _____________P -1 15.86 -46.20 TS 45 19 279
1867 NA NA 1867-09-07 00:00:00 TS 16.00 -47.20 1345 1313 _____________O -1 16.00 -47.20 TS 45 19 277
1867 NA NA 03:00:00 TS 16.10 -48.16 1309 1285 _____________P -1 16.10 -48.16 TS 45 18 276
1867 NA NA 06:00:00 TS 16.20 -49.10 1280 1251 _____________O -1 16.20 -49.10 TS 45 18 278
1867 NA NA 09:00:00 TS 16.34 -50.05 1247 1236 _____________P -1 16.34 -50.05 TS 45 18 279
1867 NA NA 12:00:00 TS 16.50 -51.00 1237 1184 _____________O -1 16.50 -51.00 TS 45 18 280
1867 NA NA 15:00:00 TS 16.65 -51.94 1184 1118 _____________P -1 16.65 -51.94 TS 45 18 279
1867 NA NA 18:00:00 TS 16.80 -52.90 1109 1042 _____________O -1 16.80 -52.90 TS 45 19 279
1867 NA NA 21:00:00 TS 16.95 -53.90 1034 980 _____________P -1 16.95 -53.90 TS 45 19 279
1867 NA NA 1867-09-08 00:00:00 TS 17.10 -54.90 973 918 _____________O -1 17.10 -54.90 TS 45 19 279
1867 NA NA 03:00:00 TS 17.25 -55.86 912 881 _____________P -1 17.25 -55.86 TS 45 18 279
1867 NA NA 06:00:00 TS 17.40 -56.80 876 839 _____________O -1 17.40 -56.80 TS 45 18 279
1867 NA NA 09:00:00 TS 17.55 -57.75 829 742 _____________P -1 17.55 -57.75 TS 45 18 279
1867 NA NA 12:00:00 NR 17.70 -58.70 732 636 _____________O -1 17.70 -58.70 TW 45 18 279
1867 NA NA 15:00:00 NR 17.85 -59.65 625 539 _____________P -1 17.85 -59.65 TW 45 18 279
1867 NA NA 18:00:00 NR 18.00 -60.60 528 433 _____________O -1 18.00 -60.60 TW 45 19 279
1867 NA CS 21:00:00 NR 18.15 -61.58 422 327 _____________P -1 18.15 -61.58 TW 42 18 279
1867 NA CS 1867-09-09 00:00:00 NR 18.30 -62.50 327 253 _____________O -1 18.30 -62.50 TW 40 16 280
1867 NA CS 03:00:00 NR 18.43 -63.28 242 170 _____________P -1 18.43 -63.28 TW 37 15 282
1867 NA CS 06:00:00 NR 18.60 -64.00 170 104 _____________O -1 18.60 -64.00 TW 35 15 284
1867 NA CS 09:00:00 NR 18.79 -64.77 95 74 _____________P -1 18.79 -64.77 TW 32 15 293
1867 NA NA 12:00:00 NR 19.20 -65.50 90 90 _____________O -1 19.20 -65.50 TW 30 18 313
1867 NA NA 15:00:00 NR 20.01 -66.16 178 178 _____________P -1 20.01 -66.16 TW 27 22 326
1867 NA NA 18:00:00 NR 21.00 -66.80 290 290 _____________O -1 21.00 -66.80 TW 25 23 326
1867 NA NA 21:00:00 NR 21.89 -67.54 345 340 _____________P -1 21.89 -67.54 TW 25 22 324
1867 NA NA 1867-09-10 00:00:00 NR 22.80 -68.20 403 403 _____________O -1 22.80 -68.20 TW 25 21 331
1867 NA NA 03:00:00 NR 23.75 -68.67 477 477 _____________P -1 23.75 -68.67 TW 25 20 339
1867 NA NA 06:00:00 NR 24.70 -69.00 566 566 _____________O -1 24.70 -69.00 TW 25 20 343
1867 NA NA 09:00:00 NR 25.65 -69.32 628 628 _____________P -1 25.65 -69.32 TW 25 19 346
1867 NA NA 12:00:00 NR 26.50 -69.50 690 690 _____________O -1 26.50 -69.50 TW 25 15 356
1867 NA NA 15:00:00 NR 27.15 -69.46 758 758 _____________P -1 27.15 -69.46 TW 25 12 8
1867 NA NA 18:00:00 NR 27.70 -69.30 816 816 _____________O -1 27.70 -69.30 TW 25 11 14
1867 NA NA 21:00:00 NR 28.26 -69.15 880 880 _____________P -1 28.26 -69.15 TW 25 11 14
1867 NA NA 1867-09-11 00:00:00 TS 28.80 -69.00 939 934 _____________O -1 28.80 -69.00 TD 25 11 11
1867 NA NA 03:00:00 TS 29.35 -68.90 934 896 _____________P -1 29.35 -68.90 TD 27 11 9
1867 NA NA 06:00:00 TS 29.90 -68.80 896 861 _____________O -1 29.90 -68.80 TD 30 11 7
1867 NA NA 09:00:00 TS 30.47 -68.73 862 840 _____________P -1 30.47 -68.73 TD 30 11 13
1867 NA NA 12:00:00 TS 31.00 -68.50 840 833 _____________O -1 31.00 -68.50 TD 30 12 36
1867 NA NA 15:00:00 TS 31.42 -67.92 856 856 _____________P -1 31.42 -67.92 TD 32 14 54
1867 NA NA 18:00:00 TS 31.80 -67.20 885 885 _____________O -1 31.80 -67.20 TS 35 14 55
1867 NA NA 21:00:00 TS 32.20 -66.60 911 911 _____________P -1 32.20 -66.60 TS 35 13 52
1867 NA NA 1867-09-12 00:00:00 TS 32.60 -66.00 941 941 _____________O -1 32.60 -66.00 TS 35 13 53
1867 NA NA 03:00:00 TS 33.00 -65.35 984 984 _____________P -1 33.00 -65.35 TS 35 14 54
1867 NA NA 06:00:00 TS 33.40 -64.70 1021 1015 _____________O -1 33.40 -64.70 TS 35 13 53
1867 NA NA 09:00:00 TS 33.80 -64.09 1019 1004 _____________P -1 33.80 -64.09 TS 32 13 51
1867 NA NA 12:00:00 TS 34.20 -63.50 1009 _____________O -1 34.20 -63.50 TD 30 13 51